sensor_id;sensor_type;location;lat;lon;timestamp;P1;durP1;ratioP1;P2;durP2;ratioP2
69414;SDS011;56608;43.530;-5.652;2022-08-19T00:00:26;8.90;;;5.20;;
69414;SDS011;56608;43.530;-5.652;2022-08-19T00:01:28;15.95;;;6.05;;
69414;SDS011;56608;43.530;-5.652;2022-08-19T00:02:31;11.80;;;5.80;;
69414;SDS011;56608;43.530;-5.652;2022-08-19T00:03:32;11.20;;;5.32;;
69414;SDS011;56608;43.530;-5.652;2022-08-19T00:04:34;16.80;;;5.53;;
69414;SDS011;56608;43.530;-5.652;2022-08-19T00:05:37;10.65;;;5.45;;
69414;SDS011;56608;43.530;-5.652;2022-08-19T00:06:40;9.57;;;5.50;;
69414;SDS011;56608;43.530;-5.652;2022-08-19T00:07:43;13.55;;;6.10;;
69414;SDS011;56608;43.530;-5.652;2022-08-19T00:08:44;12.37;;;5.87;;
69414;SDS011;56608;43.530;-5.652;2022-08-19T00:09:46;12.13;;;5.50;;
69414;SDS011;56608;43.530;-5.652;2022-08-19T00:10:47;11.00;;;5.50;;
69414;SDS011;56608;43.530;-5.652;2022-08-19T00:11:49;10.80;;;7.30;;
69414;SDS011;56608;43.530;-5.652;2022-08-19T00:12:51;14.60;;;7.95;;
69414;SDS011;56608;43.530;-5.652;2022-08-19T00:14:54;10.85;;;5.20;;
69414;SDS011;56608;43.530;-5.652;2022-08-19T00:15:55;10.10;;;5.40;;
69414;SDS011;56608;43.530;-5.652;2022-08-19T00:16:57;8.60;;;4.95;;
69414;SDS011;56608;43.530;-5.652;2022-08-19T00:18:01;8.20;;;4.90;;
69414;SDS011;56608;43.530;-5.652;2022-08-19T00:19:05;10.90;;;5.25;;
69414;SDS011;56608;43.530;-5.652;2022-08-19T00:20:08;7.75;;;5.15;;
69414;SDS011;56608;43.530;-5.652;2022-08-19T00:21:12;10.45;;;5.45;;
69414;SDS011;56608;43.530;-5.652;2022-08-19T00:22:13;9.60;;;5.60;;
69414;SDS011;56608;43.530;-5.652;2022-08-19T00:23:15;10.75;;;5.80;;
69414;SDS011;56608;43.530;-5.652;2022-08-19T00:24:17;10.55;;;5.22;;
69414;SDS011;56608;43.530;-5.652;2022-08-19T00:25:18;10.10;;;5.40;;
69414;SDS011;56608;43.530;-5.652;2022-08-19T00:26:20;11.90;;;5.40;;
69414;SDS011;56608;43.530;-5.652;2022-08-19T00:27:21;9.13;;;5.20;;
69414;SDS011;56608;43.530;-5.652;2022-08-19T00:28:23;10.70;;;5.80;;
69414;SDS011;56608;43.530;-5.652;2022-08-19T00:30:25;9.15;;;5.20;;
69414;SDS011;56608;43.530;-5.652;2022-08-19T00:31:28;9.30;;;5.65;;
69414;SDS011;56608;43.530;-5.652;2022-08-19T00:32:32;9.80;;;5.40;;
69414;SDS011;56608;43.530;-5.652;2022-08-19T00:33:35;7.20;;;4.80;;
69414;SDS011;56608;43.530;-5.652;2022-08-19T00:35:38;10.77;;;5.62;;
69414;SDS011;56608;43.530;-5.652;2022-08-19T00:36:39;10.95;;;5.53;;
69414;SDS011;56608;43.530;-5.652;2022-08-19T00:37:41;7.95;;;5.10;;
69414;SDS011;56608;43.530;-5.652;2022-08-19T00:38:44;9.15;;;5.60;;
69414;SDS011;56608;43.530;-5.652;2022-08-19T00:40:47;13.68;;;6.18;;
69414;SDS011;56608;43.530;-5.652;2022-08-19T00:41:49;9.75;;;5.22;;
69414;SDS011;56608;43.530;-5.652;2022-08-19T00:42:51;10.50;;;5.80;;
69414;SDS011;56608;43.530;-5.652;2022-08-19T00:45:14;12.35;;;5.75;;
69414;SDS011;56608;43.530;-5.652;2022-08-19T00:46:18;11.15;;;5.60;;
69414;SDS011;56608;43.530;-5.652;2022-08-19T00:47:21;11.45;;;5.80;;
69414;SDS011;56608;43.530;-5.652;2022-08-19T00:48:22;12.85;;;6.10;;
69414;SDS011;56608;43.530;-5.652;2022-08-19T00:50:59;10.40;;;4.95;;
69414;SDS011;56608;43.530;-5.652;2022-08-19T00:52:21;9.45;;;5.50;;
69414;SDS011;56608;43.530;-5.652;2022-08-19T00:53:26;13.65;;;6.20;;
69414;SDS011;56608;43.530;-5.652;2022-08-19T00:54:30;9.10;;;5.25;;
69414;SDS011;56608;43.530;-5.652;2022-08-19T00:56:33;14.23;;;6.28;;
69414;SDS011;56608;43.530;-5.652;2022-08-19T00:57:36;13.27;;;5.85;;
69414;SDS011;56608;43.530;-5.652;2022-08-19T00:58:40;12.20;;;5.90;;
69414;SDS011;56608;43.530;-5.652;2022-08-19T00:59:43;11.27;;;5.50;;
69414;SDS011;56608;43.530;-5.652;2022-08-19T01:00:47;11.60;;;5.95;;
69414;SDS011;56608;43.530;-5.652;2022-08-19T01:01:49;10.70;;;6.05;;
69414;SDS011;56608;43.530;-5.652;2022-08-19T01:02:51;12.55;;;6.00;;
69414;SDS011;56608;43.530;-5.652;2022-08-19T01:03:53;10.25;;;5.90;;
69414;SDS011;56608;43.530;-5.652;2022-08-19T01:04:55;12.50;;;6.05;;
69414;SDS011;56608;43.530;-5.652;2022-08-19T01:05:57;10.05;;;5.65;;
69414;SDS011;56608;43.530;-5.652;2022-08-19T01:06:58;12.73;;;5.65;;
69414;SDS011;56608;43.530;-5.652;2022-08-19T01:08:01;11.20;;;6.30;;
69414;SDS011;56608;43.530;-5.652;2022-08-19T01:09:04;10.40;;;5.75;;
69414;SDS011;56608;43.530;-5.652;2022-08-19T01:10:08;10.30;;;5.40;;
69414;SDS011;56608;43.530;-5.652;2022-08-19T01:11:13;11.45;;;5.95;;
69414;SDS011;56608;43.530;-5.652;2022-08-19T01:12:14;11.47;;;6.20;;
69414;SDS011;56608;43.530;-5.652;2022-08-19T01:13:20;9.85;;;6.10;;
69414;SDS011;56608;43.530;-5.652;2022-08-19T01:14:24;10.55;;;5.75;;
69414;SDS011;56608;43.530;-5.652;2022-08-19T01:15:29;9.10;;;5.70;;
69414;SDS011;56608;43.530;-5.652;2022-08-19T01:16:33;12.10;;;5.85;;
69414;SDS011;56608;43.530;-5.652;2022-08-19T01:17:36;10.55;;;6.15;;
69414;SDS011;56608;43.530;-5.652;2022-08-19T01:18:41;8.85;;;5.55;;
69414;SDS011;56608;43.530;-5.652;2022-08-19T01:19:43;10.20;;;5.60;;
69414;SDS011;56608;43.530;-5.652;2022-08-19T01:20:47;12.40;;;6.00;;
69414;SDS011;56608;43.530;-5.652;2022-08-19T01:21:52;9.60;;;5.90;;
69414;SDS011;56608;43.530;-5.652;2022-08-19T01:23:04;13.70;;;6.55;;
69414;SDS011;56608;43.530;-5.652;2022-08-19T01:24:06;9.45;;;6.18;;
69414;SDS011;56608;43.530;-5.652;2022-08-19T01:25:07;11.38;;;6.10;;
69414;SDS011;56608;43.530;-5.652;2022-08-19T01:26:15;10.60;;;6.25;;
69414;SDS011;56608;43.530;-5.652;2022-08-19T01:27:18;11.10;;;6.45;;
69414;SDS011;56608;43.530;-5.652;2022-08-19T01:28:21;11.05;;;6.18;;
69414;SDS011;56608;43.530;-5.652;2022-08-19T01:29:26;13.80;;;6.40;;
69414;SDS011;56608;43.530;-5.652;2022-08-19T01:30:28;10.85;;;7.15;;
69414;SDS011;56608;43.530;-5.652;2022-08-19T01:31:32;10.00;;;6.35;;
69414;SDS011;56608;43.530;-5.652;2022-08-19T01:32:33;12.43;;;5.80;;
69414;SDS011;56608;43.530;-5.652;2022-08-19T01:33:35;9.07;;;5.60;;
69414;SDS011;56608;43.530;-5.652;2022-08-19T01:34:37;11.37;;;5.87;;
69414;SDS011;56608;43.530;-5.652;2022-08-19T01:36:43;12.15;;;5.95;;
69414;SDS011;56608;43.530;-5.652;2022-08-19T01:37:59;13.15;;;6.00;;
69414;SDS011;56608;43.530;-5.652;2022-08-19T01:39:05;9.35;;;5.95;;
69414;SDS011;56608;43.530;-5.652;2022-08-19T01:40:08;12.30;;;6.40;;
69414;SDS011;56608;43.530;-5.652;2022-08-19T01:41:11;12.85;;;6.20;;
69414;SDS011;56608;43.530;-5.652;2022-08-19T01:42:13;14.65;;;6.35;;
69414;SDS011;56608;43.530;-5.652;2022-08-19T01:43:14;13.13;;;6.35;;
69414;SDS011;56608;43.530;-5.652;2022-08-19T01:44:16;11.40;;;6.75;;
69414;SDS011;56608;43.530;-5.652;2022-08-19T01:45:22;12.95;;;6.60;;
69414;SDS011;56608;43.530;-5.652;2022-08-19T01:46:25;10.10;;;6.50;;
69414;SDS011;56608;43.530;-5.652;2022-08-19T01:47:27;14.30;;;7.40;;
69414;SDS011;56608;43.530;-5.652;2022-08-19T01:48:32;15.20;;;6.20;;
69414;SDS011;56608;43.530;-5.652;2022-08-19T01:49:35;10.05;;;6.55;;
69414;SDS011;56608;43.530;-5.652;2022-08-19T01:50:37;13.05;;;6.35;;
69414;SDS011;56608;43.530;-5.652;2022-08-19T01:51:39;12.65;;;6.55;;
69414;SDS011;56608;43.530;-5.652;2022-08-19T01:52:40;12.30;;;6.95;;
69414;SDS011;56608;43.530;-5.652;2022-08-19T01:53:43;17.90;;;6.50;;
69414;SDS011;56608;43.530;-5.652;2022-08-19T01:54:49;17.17;;;6.63;;
69414;SDS011;56608;43.530;-5.652;2022-08-19T01:55:50;12.75;;;6.40;;
69414;SDS011;56608;43.530;-5.652;2022-08-19T01:57:55;11.40;;;6.40;;
69414;SDS011;56608;43.530;-5.652;2022-08-19T01:59:03;13.85;;;6.95;;
69414;SDS011;56608;43.530;-5.652;2022-08-19T02:00:10;11.55;;;6.80;;
69414;SDS011;56608;43.530;-5.652;2022-08-19T02:01:15;11.05;;;6.65;;
69414;SDS011;56608;43.530;-5.652;2022-08-19T02:02:16;15.43;;;6.25;;
69414;SDS011;56608;43.530;-5.652;2022-08-19T02:03:18;13.60;;;7.40;;
69414;SDS011;56608;43.530;-5.652;2022-08-19T02:04:19;13.20;;;6.75;;
69414;SDS011;56608;43.530;-5.652;2022-08-19T02:05:21;14.00;;;7.00;;
69414;SDS011;56608;43.530;-5.652;2022-08-19T02:06:24;11.35;;;6.60;;
69414;SDS011;56608;43.530;-5.652;2022-08-19T02:07:25;12.35;;;7.05;;
69414;SDS011;56608;43.530;-5.652;2022-08-19T02:08:29;12.35;;;7.35;;
69414;SDS011;56608;43.530;-5.652;2022-08-19T02:09:31;11.30;;;7.25;;
69414;SDS011;56608;43.530;-5.652;2022-08-19T02:11:34;13.80;;;6.97;;
69414;SDS011;56608;43.530;-5.652;2022-08-19T02:12:37;10.37;;;6.23;;
69414;SDS011;56608;43.530;-5.652;2022-08-19T02:13:38;12.70;;;6.40;;
69414;SDS011;56608;43.530;-5.652;2022-08-19T02:14:40;12.37;;;6.22;;
69414;SDS011;56608;43.530;-5.652;2022-08-19T02:15:41;13.02;;;6.32;;
69414;SDS011;56608;43.530;-5.652;2022-08-19T02:16:43;14.52;;;6.65;;
69414;SDS011;56608;43.530;-5.652;2022-08-19T02:17:44;12.15;;;6.15;;
69414;SDS011;56608;43.530;-5.652;2022-08-19T02:18:47;11.85;;;6.85;;
69414;SDS011;56608;43.530;-5.652;2022-08-19T02:19:51;9.95;;;6.20;;
69414;SDS011;56608;43.530;-5.652;2022-08-19T02:20:52;10.70;;;6.00;;
69414;SDS011;56608;43.530;-5.652;2022-08-19T02:21:54;11.55;;;6.10;;
69414;SDS011;56608;43.530;-5.652;2022-08-19T02:22:54;12.30;;;6.60;;
69414;SDS011;56608;43.530;-5.652;2022-08-19T02:23:56;12.20;;;6.45;;
69414;SDS011;56608;43.530;-5.652;2022-08-19T02:24:58;11.20;;;6.70;;
69414;SDS011;56608;43.530;-5.652;2022-08-19T02:26:00;11.85;;;6.20;;
69414;SDS011;56608;43.530;-5.652;2022-08-19T02:27:02;12.70;;;6.20;;
69414;SDS011;56608;43.530;-5.652;2022-08-19T02:28:04;12.60;;;7.05;;
69414;SDS011;56608;43.530;-5.652;2022-08-19T02:29:05;12.80;;;6.70;;
69414;SDS011;56608;43.530;-5.652;2022-08-19T02:30:08;13.32;;;6.43;;
69414;SDS011;56608;43.530;-5.652;2022-08-19T02:31:17;10.75;;;6.75;;
69414;SDS011;56608;43.530;-5.652;2022-08-19T02:32:21;11.90;;;6.85;;
69414;SDS011;56608;43.530;-5.652;2022-08-19T02:33:22;13.25;;;7.07;;
69414;SDS011;56608;43.530;-5.652;2022-08-19T02:34:24;12.88;;;7.70;;
69414;SDS011;56608;43.530;-5.652;2022-08-19T02:36:26;14.65;;;7.90;;
69414;SDS011;56608;43.530;-5.652;2022-08-19T02:37:28;13.25;;;7.45;;
69414;SDS011;56608;43.530;-5.652;2022-08-19T02:39:02;16.50;;;7.15;;
69414;SDS011;56608;43.530;-5.652;2022-08-19T02:40:04;11.95;;;6.95;;
69414;SDS011;56608;43.530;-5.652;2022-08-19T02:41:16;11.60;;;6.95;;
69414;SDS011;56608;43.530;-5.652;2022-08-19T02:42:19;13.30;;;7.30;;
69414;SDS011;56608;43.530;-5.652;2022-08-19T02:43:20;12.30;;;6.70;;
69414;SDS011;56608;43.530;-5.652;2022-08-19T02:44:23;15.00;;;7.50;;
69414;SDS011;56608;43.530;-5.652;2022-08-19T02:45:23;13.63;;;6.43;;
69414;SDS011;56608;43.530;-5.652;2022-08-19T02:46:27;11.43;;;6.53;;
69414;SDS011;56608;43.530;-5.652;2022-08-19T02:47:29;11.30;;;6.40;;
69414;SDS011;56608;43.530;-5.652;2022-08-19T02:48:30;13.20;;;6.00;;
69414;SDS011;56608;43.530;-5.652;2022-08-19T02:49:33;12.55;;;6.60;;
69414;SDS011;56608;43.530;-5.652;2022-08-19T02:50:38;18.02;;;7.72;;
69414;SDS011;56608;43.530;-5.652;2022-08-19T02:51:41;12.30;;;6.70;;
69414;SDS011;56608;43.530;-5.652;2022-08-19T02:52:44;16.35;;;7.50;;
69414;SDS011;56608;43.530;-5.652;2022-08-19T02:53:46;13.65;;;7.40;;
69414;SDS011;56608;43.530;-5.652;2022-08-19T02:54:48;13.85;;;7.15;;
69414;SDS011;56608;43.530;-5.652;2022-08-19T02:55:50;16.60;;;7.75;;
69414;SDS011;56608;43.530;-5.652;2022-08-19T02:56:52;14.65;;;7.60;;
69414;SDS011;56608;43.530;-5.652;2022-08-19T02:57:54;12.20;;;6.87;;
69414;SDS011;56608;43.530;-5.652;2022-08-19T02:58:56;11.70;;;7.18;;
69414;SDS011;56608;43.530;-5.652;2022-08-19T02:59:58;14.30;;;7.40;;
69414;SDS011;56608;43.530;-5.652;2022-08-19T03:00:59;11.55;;;7.25;;
69414;SDS011;56608;43.530;-5.652;2022-08-19T03:02:01;11.60;;;6.85;;
69414;SDS011;56608;43.530;-5.652;2022-08-19T03:04:04;16.00;;;6.57;;
69414;SDS011;56608;43.530;-5.652;2022-08-19T03:05:07;12.80;;;7.00;;
69414;SDS011;56608;43.530;-5.652;2022-08-19T03:06:12;11.55;;;6.75;;
69414;SDS011;56608;43.530;-5.652;2022-08-19T03:07:15;12.25;;;6.70;;
69414;SDS011;56608;43.530;-5.652;2022-08-19T03:08:18;12.02;;;6.95;;
69414;SDS011;56608;43.530;-5.652;2022-08-19T03:09:19;11.10;;;7.50;;
69414;SDS011;56608;43.530;-5.652;2022-08-19T03:10:21;10.60;;;6.80;;
69414;SDS011;56608;43.530;-5.652;2022-08-19T03:11:27;13.50;;;7.05;;
69414;SDS011;56608;43.530;-5.652;2022-08-19T03:12:30;14.53;;;7.37;;
69414;SDS011;56608;43.530;-5.652;2022-08-19T03:13:31;11.45;;;6.78;;
69414;SDS011;56608;43.530;-5.652;2022-08-19T03:14:33;12.45;;;6.65;;
69414;SDS011;56608;43.530;-5.652;2022-08-19T03:16:42;13.88;;;7.05;;
69414;SDS011;56608;43.530;-5.652;2022-08-19T03:17:49;12.93;;;7.10;;
69414;SDS011;56608;43.530;-5.652;2022-08-19T03:18:50;11.05;;;6.82;;
69414;SDS011;56608;43.530;-5.652;2022-08-19T03:19:52;11.20;;;6.45;;
69414;SDS011;56608;43.530;-5.652;2022-08-19T03:20:54;9.30;;;6.30;;
69414;SDS011;56608;43.530;-5.652;2022-08-19T03:21:57;10.35;;;6.80;;
69414;SDS011;56608;43.530;-5.652;2022-08-19T03:22:59;9.55;;;6.20;;
69414;SDS011;56608;43.530;-5.652;2022-08-19T03:24:02;8.65;;;6.18;;
69414;SDS011;56608;43.530;-5.652;2022-08-19T03:25:09;13.15;;;6.95;;
69414;SDS011;56608;43.530;-5.652;2022-08-19T03:27:11;11.63;;;6.47;;
69414;SDS011;56608;43.530;-5.652;2022-08-19T03:28:14;12.70;;;7.00;;
69414;SDS011;56608;43.530;-5.652;2022-08-19T03:29:16;11.55;;;7.65;;
69414;SDS011;56608;43.530;-5.652;2022-08-19T03:30:18;15.90;;;7.75;;
69414;SDS011;56608;43.530;-5.652;2022-08-19T03:32:23;12.10;;;6.65;;
69414;SDS011;56608;43.530;-5.652;2022-08-19T03:33:25;10.02;;;6.50;;
69414;SDS011;56608;43.530;-5.652;2022-08-19T03:34:28;14.65;;;6.05;;
69414;SDS011;56608;43.530;-5.652;2022-08-19T03:35:31;13.45;;;6.65;;
69414;SDS011;56608;43.530;-5.652;2022-08-19T03:36:33;12.20;;;6.40;;
69414;SDS011;56608;43.530;-5.652;2022-08-19T03:37:34;10.70;;;6.55;;
69414;SDS011;56608;43.530;-5.652;2022-08-19T03:38:36;12.63;;;6.62;;
69414;SDS011;56608;43.530;-5.652;2022-08-19T03:39:40;11.05;;;6.35;;
69414;SDS011;56608;43.530;-5.652;2022-08-19T03:40:42;9.45;;;6.20;;
69414;SDS011;56608;43.530;-5.652;2022-08-19T03:43:46;10.57;;;6.20;;
69414;SDS011;56608;43.530;-5.652;2022-08-19T03:44:48;13.70;;;6.25;;
69414;SDS011;56608;43.530;-5.652;2022-08-19T03:45:58;13.85;;;6.62;;
69414;SDS011;56608;43.530;-5.652;2022-08-19T03:47:01;15.57;;;7.05;;
69414;SDS011;56608;43.530;-5.652;2022-08-19T03:49:04;11.15;;;6.60;;
69414;SDS011;56608;43.530;-5.652;2022-08-19T03:50:08;12.65;;;6.60;;
69414;SDS011;56608;43.530;-5.652;2022-08-19T03:52:21;16.90;;;6.60;;
69414;SDS011;56608;43.530;-5.652;2022-08-19T03:53:22;13.07;;;7.07;;
69414;SDS011;56608;43.530;-5.652;2022-08-19T03:54:24;9.57;;;6.82;;
69414;SDS011;56608;43.530;-5.652;2022-08-19T03:55:26;15.55;;;7.10;;
69414;SDS011;56608;43.530;-5.652;2022-08-19T03:56:28;15.02;;;7.35;;
69414;SDS011;56608;43.530;-5.652;2022-08-19T03:57:30;17.45;;;8.55;;
69414;SDS011;56608;43.530;-5.652;2022-08-19T03:58:31;14.65;;;6.85;;
69414;SDS011;56608;43.530;-5.652;2022-08-19T03:59:34;11.80;;;6.85;;
69414;SDS011;56608;43.530;-5.652;2022-08-19T04:00:37;14.85;;;7.62;;
69414;SDS011;56608;43.530;-5.652;2022-08-19T04:01:39;14.30;;;8.20;;
69414;SDS011;56608;43.530;-5.652;2022-08-19T04:03:41;15.70;;;7.93;;
69414;SDS011;56608;43.530;-5.652;2022-08-19T04:04:43;12.00;;;7.55;;
69414;SDS011;56608;43.530;-5.652;2022-08-19T04:05:45;12.18;;;7.57;;
69414;SDS011;56608;43.530;-5.652;2022-08-19T04:06:47;17.15;;;7.82;;
69414;SDS011;56608;43.530;-5.652;2022-08-19T04:07:49;12.90;;;7.55;;
69414;SDS011;56608;43.530;-5.652;2022-08-19T04:08:51;14.47;;;7.80;;
69414;SDS011;56608;43.530;-5.652;2022-08-19T04:09:54;15.55;;;7.65;;
69414;SDS011;56608;43.530;-5.652;2022-08-19T04:10:56;13.85;;;7.47;;
69414;SDS011;56608;43.530;-5.652;2022-08-19T04:11:57;13.10;;;8.20;;
69414;SDS011;56608;43.530;-5.652;2022-08-19T04:12:58;16.55;;;7.70;;
69414;SDS011;56608;43.530;-5.652;2022-08-19T04:14:00;13.52;;;7.85;;
69414;SDS011;56608;43.530;-5.652;2022-08-19T04:15:01;12.32;;;8.00;;
69414;SDS011;56608;43.530;-5.652;2022-08-19T04:16:03;13.80;;;7.70;;
69414;SDS011;56608;43.530;-5.652;2022-08-19T04:17:06;13.47;;;7.80;;
69414;SDS011;56608;43.530;-5.652;2022-08-19T04:18:09;14.40;;;8.15;;
69414;SDS011;56608;43.530;-5.652;2022-08-19T04:19:11;18.40;;;7.90;;
69414;SDS011;56608;43.530;-5.652;2022-08-19T04:20:13;16.60;;;8.05;;
69414;SDS011;56608;43.530;-5.652;2022-08-19T04:21:16;13.10;;;7.28;;
69414;SDS011;56608;43.530;-5.652;2022-08-19T04:22:20;13.95;;;7.75;;
69414;SDS011;56608;43.530;-5.652;2022-08-19T04:23:22;14.18;;;7.35;;
69414;SDS011;56608;43.530;-5.652;2022-08-19T04:24:24;15.15;;;7.85;;
69414;SDS011;56608;43.530;-5.652;2022-08-19T04:25:25;14.73;;;8.25;;
69414;SDS011;56608;43.530;-5.652;2022-08-19T04:26:27;11.60;;;7.80;;
69414;SDS011;56608;43.530;-5.652;2022-08-19T04:27:33;15.48;;;7.93;;
69414;SDS011;56608;43.530;-5.652;2022-08-19T04:28:34;14.50;;;7.30;;
69414;SDS011;56608;43.530;-5.652;2022-08-19T04:29:37;12.30;;;7.50;;
69414;SDS011;56608;43.530;-5.652;2022-08-19T04:30:41;11.15;;;6.40;;
69414;SDS011;56608;43.530;-5.652;2022-08-19T04:31:45;9.45;;;6.30;;
69414;SDS011;56608;43.530;-5.652;2022-08-19T04:32:47;10.20;;;5.40;;
69414;SDS011;56608;43.530;-5.652;2022-08-19T04:33:48;11.70;;;6.00;;
69414;SDS011;56608;43.530;-5.652;2022-08-19T04:34:50;11.82;;;5.70;;
69414;SDS011;56608;43.530;-5.652;2022-08-19T04:35:52;11.15;;;6.00;;
69414;SDS011;56608;43.530;-5.652;2022-08-19T04:36:54;10.05;;;6.45;;
69414;SDS011;56608;43.530;-5.652;2022-08-19T04:37:57;10.15;;;6.10;;
69414;SDS011;56608;43.530;-5.652;2022-08-19T04:38:59;10.10;;;6.25;;
69414;SDS011;56608;43.530;-5.652;2022-08-19T04:40:04;9.70;;;5.75;;
69414;SDS011;56608;43.530;-5.652;2022-08-19T04:41:25;12.25;;;7.00;;
69414;SDS011;56608;43.530;-5.652;2022-08-19T04:42:45;11.50;;;6.35;;
69414;SDS011;56608;43.530;-5.652;2022-08-19T04:43:46;12.05;;;6.50;;
69414;SDS011;56608;43.530;-5.652;2022-08-19T04:44:49;11.80;;;6.00;;
69414;SDS011;56608;43.530;-5.652;2022-08-19T04:45:51;10.60;;;6.25;;
69414;SDS011;56608;43.530;-5.652;2022-08-19T04:46:53;12.27;;;6.72;;
69414;SDS011;56608;43.530;-5.652;2022-08-19T04:47:54;10.75;;;7.00;;
69414;SDS011;56608;43.530;-5.652;2022-08-19T04:49:00;11.73;;;7.03;;
69414;SDS011;56608;43.530;-5.652;2022-08-19T04:50:03;12.30;;;6.55;;
69414;SDS011;56608;43.530;-5.652;2022-08-19T04:51:06;14.23;;;7.20;;
69414;SDS011;56608;43.530;-5.652;2022-08-19T04:52:09;13.03;;;7.53;;
69414;SDS011;56608;43.530;-5.652;2022-08-19T04:53:09;12.10;;;7.23;;
69414;SDS011;56608;43.530;-5.652;2022-08-19T04:54:11;11.95;;;7.25;;
69414;SDS011;56608;43.530;-5.652;2022-08-19T04:55:13;12.15;;;7.40;;
69414;SDS011;56608;43.530;-5.652;2022-08-19T04:56:16;13.75;;;8.00;;
69414;SDS011;56608;43.530;-5.652;2022-08-19T04:57:20;11.05;;;7.72;;
69414;SDS011;56608;43.530;-5.652;2022-08-19T04:59:23;17.48;;;8.85;;
69414;SDS011;56608;43.530;-5.652;2022-08-19T05:00:24;20.15;;;9.00;;
69414;SDS011;56608;43.530;-5.652;2022-08-19T05:01:27;15.32;;;8.43;;
69414;SDS011;56608;43.530;-5.652;2022-08-19T05:02:29;13.50;;;7.18;;
69414;SDS011;56608;43.530;-5.652;2022-08-19T05:03:30;14.10;;;7.47;;
69414;SDS011;56608;43.530;-5.652;2022-08-19T05:04:34;15.95;;;7.75;;
69414;SDS011;56608;43.530;-5.652;2022-08-19T05:05:40;11.48;;;7.97;;
69414;SDS011;56608;43.530;-5.652;2022-08-19T05:06:42;17.50;;;7.97;;
69414;SDS011;56608;43.530;-5.652;2022-08-19T05:07:44;15.65;;;7.60;;
69414;SDS011;56608;43.530;-5.652;2022-08-19T05:08:45;19.73;;;8.68;;
69414;SDS011;56608;43.530;-5.652;2022-08-19T05:09:48;15.35;;;8.05;;
69414;SDS011;56608;43.530;-5.652;2022-08-19T05:10:49;13.05;;;7.40;;
69414;SDS011;56608;43.530;-5.652;2022-08-19T05:11:52;12.20;;;7.40;;
69414;SDS011;56608;43.530;-5.652;2022-08-19T05:12:54;12.82;;;7.85;;
69414;SDS011;56608;43.530;-5.652;2022-08-19T05:13:56;13.30;;;8.20;;
69414;SDS011;56608;43.530;-5.652;2022-08-19T05:14:59;16.42;;;7.87;;
69414;SDS011;56608;43.530;-5.652;2022-08-19T05:16:01;13.40;;;7.35;;
69414;SDS011;56608;43.530;-5.652;2022-08-19T05:17:03;13.35;;;8.10;;
69414;SDS011;56608;43.530;-5.652;2022-08-19T05:18:04;14.00;;;8.25;;
69414;SDS011;56608;43.530;-5.652;2022-08-19T05:19:24;13.40;;;7.93;;
69414;SDS011;56608;43.530;-5.652;2022-08-19T05:20:44;14.65;;;7.70;;
69414;SDS011;56608;43.530;-5.652;2022-08-19T05:22:04;14.45;;;8.05;;
69414;SDS011;56608;43.530;-5.652;2022-08-19T05:23:24;17.80;;;7.50;;
69414;SDS011;56608;43.530;-5.652;2022-08-19T05:24:25;16.42;;;8.18;;
69414;SDS011;56608;43.530;-5.652;2022-08-19T05:25:27;15.35;;;7.50;;
69414;SDS011;56608;43.530;-5.652;2022-08-19T05:26:29;12.80;;;8.00;;
69414;SDS011;56608;43.530;-5.652;2022-08-19T05:27:30;16.98;;;8.27;;
69414;SDS011;56608;43.530;-5.652;2022-08-19T05:28:32;13.05;;;7.55;;
69414;SDS011;56608;43.530;-5.652;2022-08-19T05:29:33;15.30;;;7.30;;
69414;SDS011;56608;43.530;-5.652;2022-08-19T05:30:35;12.55;;;7.60;;
69414;SDS011;56608;43.530;-5.652;2022-08-19T05:31:37;17.65;;;8.05;;
69414;SDS011;56608;43.530;-5.652;2022-08-19T05:32:42;12.77;;;7.40;;
69414;SDS011;56608;43.530;-5.652;2022-08-19T05:33:44;11.85;;;7.82;;
69414;SDS011;56608;43.530;-5.652;2022-08-19T05:35:47;14.35;;;7.55;;
69414;SDS011;56608;43.530;-5.652;2022-08-19T05:36:50;13.62;;;7.40;;
69414;SDS011;56608;43.530;-5.652;2022-08-19T05:37:57;13.40;;;7.80;;
69414;SDS011;56608;43.530;-5.652;2022-08-19T05:38:59;14.85;;;8.32;;
69414;SDS011;56608;43.530;-5.652;2022-08-19T05:40:00;13.40;;;8.57;;
69414;SDS011;56608;43.530;-5.652;2022-08-19T05:41:12;14.07;;;7.47;;
69414;SDS011;56608;43.530;-5.652;2022-08-19T05:42:14;13.05;;;7.70;;
69414;SDS011;56608;43.530;-5.652;2022-08-19T05:43:17;14.23;;;7.97;;
69414;SDS011;56608;43.530;-5.652;2022-08-19T05:44:18;11.93;;;7.85;;
69414;SDS011;56608;43.530;-5.652;2022-08-19T05:45:22;12.55;;;7.40;;
69414;SDS011;56608;43.530;-5.652;2022-08-19T05:46:23;15.27;;;8.50;;
69414;SDS011;56608;43.530;-5.652;2022-08-19T05:48:26;12.57;;;7.82;;
69414;SDS011;56608;43.530;-5.652;2022-08-19T05:49:28;10.50;;;6.80;;
69414;SDS011;56608;43.530;-5.652;2022-08-19T05:50:32;15.63;;;8.47;;
69414;SDS011;56608;43.530;-5.652;2022-08-19T05:51:34;14.63;;;7.72;;
69414;SDS011;56608;43.530;-5.652;2022-08-19T05:52:36;11.80;;;7.95;;
69414;SDS011;56608;43.530;-5.652;2022-08-19T05:53:39;11.85;;;7.30;;
69414;SDS011;56608;43.530;-5.652;2022-08-19T05:54:40;14.57;;;7.65;;
69414;SDS011;56608;43.530;-5.652;2022-08-19T05:55:43;11.70;;;7.27;;
69414;SDS011;56608;43.530;-5.652;2022-08-19T05:56:45;13.27;;;7.30;;
69414;SDS011;56608;43.530;-5.652;2022-08-19T05:57:48;13.35;;;7.60;;
69414;SDS011;56608;43.530;-5.652;2022-08-19T05:58:50;13.25;;;7.30;;
69414;SDS011;56608;43.530;-5.652;2022-08-19T05:59:51;13.50;;;7.30;;
69414;SDS011;56608;43.530;-5.652;2022-08-19T06:00:54;11.75;;;7.75;;
69414;SDS011;56608;43.530;-5.652;2022-08-19T06:01:55;12.85;;;7.20;;
69414;SDS011;56608;43.530;-5.652;2022-08-19T06:02:57;14.13;;;7.43;;
69414;SDS011;56608;43.530;-5.652;2022-08-19T06:04:00;12.55;;;7.45;;
69414;SDS011;56608;43.530;-5.652;2022-08-19T06:05:03;18.60;;;6.95;;
69414;SDS011;56608;43.530;-5.652;2022-08-19T06:06:08;12.50;;;8.30;;
69414;SDS011;56608;43.530;-5.652;2022-08-19T06:07:10;14.05;;;7.50;;
69414;SDS011;56608;43.530;-5.652;2022-08-19T06:08:12;14.00;;;8.20;;
69414;SDS011;56608;43.530;-5.652;2022-08-19T06:09:13;12.57;;;7.62;;
69414;SDS011;56608;43.530;-5.652;2022-08-19T06:11:18;15.48;;;7.15;;
69414;SDS011;56608;43.530;-5.652;2022-08-19T06:12:19;10.85;;;7.75;;
69414;SDS011;56608;43.530;-5.652;2022-08-19T06:13:21;15.15;;;7.85;;
69414;SDS011;56608;43.530;-5.652;2022-08-19T06:14:25;17.55;;;8.55;;
69414;SDS011;56608;43.530;-5.652;2022-08-19T06:15:29;13.93;;;7.93;;
69414;SDS011;56608;43.530;-5.652;2022-08-19T06:16:31;15.18;;;7.62;;
69414;SDS011;56608;43.530;-5.652;2022-08-19T06:17:35;13.82;;;8.15;;
69414;SDS011;56608;43.530;-5.652;2022-08-19T06:18:37;16.05;;;7.65;;
69414;SDS011;56608;43.530;-5.652;2022-08-19T06:19:38;16.75;;;7.53;;
69414;SDS011;56608;43.530;-5.652;2022-08-19T06:20:41;13.23;;;7.70;;
69414;SDS011;56608;43.530;-5.652;2022-08-19T06:21:44;14.00;;;7.57;;
69414;SDS011;56608;43.530;-5.652;2022-08-19T06:22:48;13.97;;;7.77;;
69414;SDS011;56608;43.530;-5.652;2022-08-19T06:23:51;11.70;;;7.10;;
69414;SDS011;56608;43.530;-5.652;2022-08-19T06:25:54;15.30;;;6.93;;
69414;SDS011;56608;43.530;-5.652;2022-08-19T06:26:56;15.80;;;8.00;;
69414;SDS011;56608;43.530;-5.652;2022-08-19T06:28:01;10.52;;;7.35;;
69414;SDS011;56608;43.530;-5.652;2022-08-19T06:29:04;12.63;;;7.83;;
69414;SDS011;56608;43.530;-5.652;2022-08-19T06:30:07;12.20;;;7.25;;
69414;SDS011;56608;43.530;-5.652;2022-08-19T06:31:09;12.47;;;7.10;;
69414;SDS011;56608;43.530;-5.652;2022-08-19T06:32:10;15.55;;;7.57;;
69414;SDS011;56608;43.530;-5.652;2022-08-19T06:33:12;13.95;;;7.78;;
69414;SDS011;56608;43.530;-5.652;2022-08-19T06:34:14;13.80;;;6.90;;
69414;SDS011;56608;43.530;-5.652;2022-08-19T06:35:14;15.80;;;8.00;;
69414;SDS011;56608;43.530;-5.652;2022-08-19T06:36:20;13.10;;;7.53;;